עמוד ראשי
METAR-TAF:

METAR-TAF

שדות תעופה :

Cap-Haïtien, האיטי

קו רוחב: 19-43-59N, קו אורך: 72-11-41W, גובה: 3מטר

METAR: חסר

זמן: 21:06 (01:06 UTC)

תחזית

הדו"ח נערך לפני 8 שעות ו 6דקות, בשעה 17:00 UTC
תחזית בתוקף מ 12 ב 18 UTC עד 13 ב 18 UTC
רוח 10קשר מכיוון מזרח/צפון-מזרח
ראות: 9000מטר
עננים פזורים בגובה 2600רגל , קומולוס מיגדלי.
עננים בינוניים בגובה 7000רגל
מ 13 ב 0300UTC
רוח 2קשר עם כיוונים משתנים
ראות: 8000מטר
מעט עננים בגובה 2000רגל
יעשה מ
13 ב 13 UTC עד 13 ב 15 UTC
רוח 12קשר מכיוון מזרח

TAF: MTCH 121700Z 1218/1318 06010KT 9000 SCT026TCU BKN070 FM130300 VRB02KT 8000 FEW020 BECMG 1313/1315 09012KT

תצפיות ותחזיות מזג אוויר לגבי יותר מ- 4,000 שדות תעופה ברחבי העולם. דוחות METAR ו- TAF.

התחנות הזמינות מסומנות בנקודות צהובות ואדומות על גבי המפה.

העבר את העכבר לנקודה הצבעונית על מנת לראות את שם התחנה.

לאחר מכן, לחץ כדי לראות את תוכן ואת תחזיות מזג האוויר.

כדי לשנות את המפה: לחץ על הכפתורים הירוקים עם הפלוס השחור כדי להתקרב; על הכפתור הירוק עם המקף כדי להתרחק; או בחיצים הירוקים למפות סמוכות.


METAR-TAF: